sensor_id;sensor_type;location;lat;lon;timestamp;temperature;humidity
59067;DHT22;44854;50.838;4.438;2022-09-23T05:04:26;11.00;99.90
59067;DHT22;44854;50.838;4.438;2022-09-23T05:06:52;11.00;99.90
59067;DHT22;44854;50.838;4.438;2022-09-23T05:09:17;11.00;99.90
59067;DHT22;44854;50.838;4.438;2022-09-23T05:11:43;10.90;99.90
59067;DHT22;44854;50.838;4.438;2022-09-23T05:14:09;10.90;99.90
59067;DHT22;44854;50.838;4.438;2022-09-23T05:16:35;10.90;99.90
59067;DHT22;44854;50.838;4.438;2022-09-23T05:19:00;11.00;99.90
59067;DHT22;44854;50.838;4.438;2022-09-23T05:21:27;11.00;99.90
59067;DHT22;44854;50.838;4.438;2022-09-23T05:23:56;11.10;99.90
59067;DHT22;44854;50.838;4.438;2022-09-23T05:26:26;11.30;99.90
59067;DHT22;44854;50.838;4.438;2022-09-23T05:28:52;11.30;99.90
59067;DHT22;44854;50.838;4.438;2022-09-23T05:31:19;11.30;99.90
59067;DHT22;44854;50.838;4.438;2022-09-23T05:33:45;11.20;99.90
59067;DHT22;44854;50.838;4.438;2022-09-23T05:36:11;11.30;99.90
59067;DHT22;44854;50.838;4.438;2022-09-23T05:38:37;11.40;99.90
59067;DHT22;44854;50.838;4.438;2022-09-23T05:41:05;11.30;99.90
59067;DHT22;44854;50.838;4.438;2022-09-23T05:43:31;11.40;99.90
59067;DHT22;44854;50.838;4.438;2022-09-23T05:46:00;11.40;99.90
59067;DHT22;44854;50.838;4.438;2022-09-23T05:48:27;11.20;99.90
59067;DHT22;44854;50.838;4.438;2022-09-23T05:50:53;11.20;99.90
59067;DHT22;44854;50.838;4.438;2022-09-23T05:53:19;11.20;99.90
59067;DHT22;44854;50.838;4.438;2022-09-23T05:55:44;11.20;99.90
59067;DHT22;44854;50.838;4.438;2022-09-23T05:58:10;11.20;99.90
59067;DHT22;44854;50.838;4.438;2022-09-23T06:00:39;11.20;99.90
59067;DHT22;44854;50.838;4.438;2022-09-23T06:03:05;11.10;99.90
59067;DHT22;44854;50.838;4.438;2022-09-23T06:05:32;11.20;99.90
59067;DHT22;44854;50.838;4.438;2022-09-23T06:07:57;11.20;99.90
59067;DHT22;44854;50.838;4.438;2022-09-23T06:10:23;11.30;99.90
59067;DHT22;44854;50.838;4.438;2022-09-23T06:12:48;11.30;99.90
59067;DHT22;44854;50.838;4.438;2022-09-23T06:15:14;11.30;99.90
59067;DHT22;44854;50.838;4.438;2022-09-23T06:17:40;11.50;99.90
59067;DHT22;44854;50.838;4.438;2022-09-23T06:20:06;11.40;99.90
59067;DHT22;44854;50.838;4.438;2022-09-23T06:22:32;11.60;99.90
59067;DHT22;44854;50.838;4.438;2022-09-23T06:24:57;11.60;99.90
59067;DHT22;44854;50.838;4.438;2022-09-23T06:27:23;11.70;99.90
59067;DHT22;44854;50.838;4.438;2022-09-23T06:29:48;11.70;99.90
59067;DHT22;44854;50.838;4.438;2022-09-23T06:32:17;11.80;99.90
59067;DHT22;44854;50.838;4.438;2022-09-23T06:34:43;11.90;99.90
59067;DHT22;44854;50.838;4.438;2022-09-23T06:37:10;11.90;99.90
59067;DHT22;44854;50.838;4.438;2022-09-23T06:39:35;11.90;99.90
59067;DHT22;44854;50.838;4.438;2022-09-23T06:42:01;12.00;99.90
59067;DHT22;44854;50.838;4.438;2022-09-23T06:44:27;12.20;99.90
59067;DHT22;44854;50.838;4.438;2022-09-23T06:46:53;12.30;99.90
59067;DHT22;44854;50.838;4.438;2022-09-23T06:49:18;12.40;99.90
59067;DHT22;44854;50.838;4.438;2022-09-23T06:51:47;12.50;99.90
59067;DHT22;44854;50.838;4.438;2022-09-23T06:54:12;12.70;99.90
59067;DHT22;44854;50.838;4.438;2022-09-23T06:56:38;12.70;99.90
59067;DHT22;44854;50.838;4.438;2022-09-23T06:59:04;12.80;99.90
59067;DHT22;44854;50.838;4.438;2022-09-23T07:01:30;12.90;99.90
59067;DHT22;44854;50.838;4.438;2022-09-23T07:03:55;13.10;99.90
59067;DHT22;44854;50.838;4.438;2022-09-23T07:06:21;13.00;99.90
59067;DHT22;44854;50.838;4.438;2022-09-23T07:08:46;13.00;99.90
59067;DHT22;44854;50.838;4.438;2022-09-23T07:11:13;12.90;99.90
59067;DHT22;44854;50.838;4.438;2022-09-23T07:13:39;13.00;99.90
59067;DHT22;44854;50.838;4.438;2022-09-23T07:16:05;13.10;99.90
59067;DHT22;44854;50.838;4.438;2022-09-23T07:18:32;13.30;99.90
59067;DHT22;44854;50.838;4.438;2022-09-23T07:21:11;13.40;99.90
59067;DHT22;44854;50.838;4.438;2022-09-23T07:23:40;13.50;99.90
59067;DHT22;44854;50.838;4.438;2022-09-23T07:26:06;13.50;99.90
59067;DHT22;44854;50.838;4.438;2022-09-23T07:28:33;13.70;99.90
59067;DHT22;44854;50.838;4.438;2022-09-23T07:31:02;13.80;99.90
59067;DHT22;44854;50.838;4.438;2022-09-23T07:33:29;13.90;99.90
59067;DHT22;44854;50.838;4.438;2022-09-23T07:35:56;14.00;99.90
59067;DHT22;44854;50.838;4.438;2022-09-23T07:38:21;14.00;99.90
59067;DHT22;44854;50.838;4.438;2022-09-23T07:40:50;14.00;99.90
59067;DHT22;44854;50.838;4.438;2022-09-23T07:43:16;14.20;99.90
59067;DHT22;44854;50.838;4.438;2022-09-23T07:45:42;14.20;99.90
59067;DHT22;44854;50.838;4.438;2022-09-23T07:48:08;14.20;99.90
59067;DHT22;44854;50.838;4.438;2022-09-23T07:50:33;14.20;99.90
59067;DHT22;44854;50.838;4.438;2022-09-23T07:52:59;14.30;99.90
59067;DHT22;44854;50.838;4.438;2022-09-23T07:55:27;14.20;99.90
59067;DHT22;44854;50.838;4.438;2022-09-23T07:57:52;14.40;99.90
59067;DHT22;44854;50.838;4.438;2022-09-23T08:00:18;14.60;99.90
59067;DHT22;44854;50.838;4.438;2022-09-23T08:02:43;14.70;99.90
59067;DHT22;44854;50.838;4.438;2022-09-23T08:05:09;15.00;99.90
59067;DHT22;44854;50.838;4.438;2022-09-23T08:07:34;15.00;99.90
59067;DHT22;44854;50.838;4.438;2022-09-23T08:10:00;14.90;99.90
59067;DHT22;44854;50.838;4.438;2022-09-23T08:12:26;14.90;99.90
59067;DHT22;44854;50.838;4.438;2022-09-23T08:14:53;15.00;99.90
59067;DHT22;44854;50.838;4.438;2022-09-23T08:17:19;15.00;99.90
59067;DHT22;44854;50.838;4.438;2022-09-23T08:19:44;15.20;99.90
59067;DHT22;44854;50.838;4.438;2022-09-23T08:22:10;15.30;99.90
59067;DHT22;44854;50.838;4.438;2022-09-23T08:24:36;15.40;99.90
59067;DHT22;44854;50.838;4.438;2022-09-23T08:27:02;15.60;99.90
59067;DHT22;44854;50.838;4.438;2022-09-23T08:29:27;15.70;99.90
59067;DHT22;44854;50.838;4.438;2022-09-23T08:31:53;15.80;99.90
59067;DHT22;44854;50.838;4.438;2022-09-23T08:34:19;15.80;99.90
59067;DHT22;44854;50.838;4.438;2022-09-23T08:36:45;16.00;99.90
59067;DHT22;44854;50.838;4.438;2022-09-23T08:39:14;16.00;99.90
59067;DHT22;44854;50.838;4.438;2022-09-23T08:44:26;16.30;99.90
59067;DHT22;44854;50.838;4.438;2022-09-23T08:46:58;16.30;99.90
59067;DHT22;44854;50.838;4.438;2022-09-23T08:49:39;16.40;99.90
59067;DHT22;44854;50.838;4.438;2022-09-23T08:52:10;16.50;99.90
59067;DHT22;44854;50.838;4.438;2022-09-23T08:54:38;16.40;99.90
59067;DHT22;44854;50.838;4.438;2022-09-23T08:57:05;16.60;99.90
59067;DHT22;44854;50.838;4.438;2022-09-23T09:01:59;16.80;99.90
59067;DHT22;44854;50.838;4.438;2022-09-23T09:09:29;17.30;99.90
59067;DHT22;44854;50.838;4.438;2022-09-23T09:11:58;17.50;99.90
59067;DHT22;44854;50.838;4.438;2022-09-23T09:14:34;17.60;99.90
59067;DHT22;44854;50.838;4.438;2022-09-23T09:17:01;17.60;99.90
59067;DHT22;44854;50.838;4.438;2022-09-23T09:19:35;17.60;99.90
59067;DHT22;44854;50.838;4.438;2022-09-23T09:22:02;17.50;99.90
59067;DHT22;44854;50.838;4.438;2022-09-23T09:24:33;17.70;99.90
59067;DHT22;44854;50.838;4.438;2022-09-23T09:27:11;17.90;99.90
59067;DHT22;44854;50.838;4.438;2022-09-23T09:29:38;18.00;99.90
59067;DHT22;44854;50.838;4.438;2022-09-23T09:34:54;18.30;99.90
59067;DHT22;44854;50.838;4.438;2022-09-23T09:39:53;18.30;99.90
59067;DHT22;44854;50.838;4.438;2022-09-23T09:42:25;18.30;99.90
59067;DHT22;44854;50.838;4.438;2022-09-23T09:44:56;18.30;99.90
59067;DHT22;44854;50.838;4.438;2022-09-23T09:47:40;18.50;99.90
59067;DHT22;44854;50.838;4.438;2022-09-23T09:50:12;18.50;99.90
59067;DHT22;44854;50.838;4.438;2022-09-23T09:52:39;18.70;99.90
59067;DHT22;44854;50.838;4.438;2022-09-23T09:57:42;19.00;99.90
59067;DHT22;44854;50.838;4.438;2022-09-23T10:00:16;19.00;99.90
59067;DHT22;44854;50.838;4.438;2022-09-23T10:02:43;19.00;99.90
59067;DHT22;44854;50.838;4.438;2022-09-23T10:05:21;19.20;99.90
59067;DHT22;44854;50.838;4.438;2022-09-23T10:07:47;19.50;99.90
59067;DHT22;44854;50.838;4.438;2022-09-23T10:10:20;19.50;99.90
59067;DHT22;44854;50.838;4.438;2022-09-23T10:12:46;19.30;99.90
59067;DHT22;44854;50.838;4.438;2022-09-23T10:15:29;19.30;99.90
59067;DHT22;44854;50.838;4.438;2022-09-23T10:17:58;19.40;99.90
59067;DHT22;44854;50.838;4.438;2022-09-23T10:20:34;19.40;99.90
59067;DHT22;44854;50.838;4.438;2022-09-23T10:23:05;19.40;99.90
59067;DHT22;44854;50.838;4.438;2022-09-23T10:25:31;19.20;99.90
59067;DHT22;44854;50.838;4.438;2022-09-23T10:28:01;19.10;99.90
59067;DHT22;44854;50.838;4.438;2022-09-23T10:30:44;19.20;99.90
59067;DHT22;44854;50.838;4.438;2022-09-23T10:33:27;19.00;99.90
59067;DHT22;44854;50.838;4.438;2022-09-23T10:35:53;19.30;99.90
59067;DHT22;44854;50.838;4.438;2022-09-23T10:38:21;19.40;99.90
59067;DHT22;44854;50.838;4.438;2022-09-23T10:40:47;19.40;99.90
59067;DHT22;44854;50.838;4.438;2022-09-23T10:46:37;19.90;99.90
59067;DHT22;44854;50.838;4.438;2022-09-23T10:56:44;20.60;99.90
59067;DHT22;44854;50.838;4.438;2022-09-23T10:59:14;20.40;99.90
59067;DHT22;44854;50.838;4.438;2022-09-23T11:01:50;20.30;99.90
59067;DHT22;44854;50.838;4.438;2022-09-23T11:17:16;20.40;99.90
59067;DHT22;44854;50.838;4.438;2022-09-23T11:30:29;20.20;99.90
59067;DHT22;44854;50.838;4.438;2022-09-23T11:33:17;20.00;99.90
59067;DHT22;44854;50.838;4.438;2022-09-23T11:35:54;19.90;99.90
59067;DHT22;44854;50.838;4.438;2022-09-23T11:38:31;20.00;99.90
59067;DHT22;44854;50.838;4.438;2022-09-23T11:41:07;20.10;99.90
59067;DHT22;44854;50.838;4.438;2022-09-23T11:43:38;20.10;99.90
59067;DHT22;44854;50.838;4.438;2022-09-23T11:52:21;19.90;99.90
59067;DHT22;44854;50.838;4.438;2022-09-23T11:54:53;20.00;99.90
59067;DHT22;44854;50.838;4.438;2022-09-23T12:00:27;19.70;99.90
59067;DHT22;44854;50.838;4.438;2022-09-23T12:03:12;19.70;99.90
59067;DHT22;44854;50.838;4.438;2022-09-23T12:08:28;19.90;99.90
59067;DHT22;44854;50.838;4.438;2022-09-23T12:13:21;20.10;99.90
59067;DHT22;44854;50.838;4.438;2022-09-23T12:18:21;20.00;99.90
59067;DHT22;44854;50.838;4.438;2022-09-23T12:21:00;20.10;99.90
59067;DHT22;44854;50.838;4.438;2022-09-23T12:26:01;20.40;99.90
59067;DHT22;44854;50.838;4.438;2022-09-23T12:28:28;20.50;99.90
59067;DHT22;44854;50.838;4.438;2022-09-23T12:30:58;20.70;99.90
59067;DHT22;44854;50.838;4.438;2022-09-23T12:33:25;20.70;99.90
59067;DHT22;44854;50.838;4.438;2022-09-23T12:35:52;20.70;99.90
59067;DHT22;44854;50.838;4.438;2022-09-23T12:38:20;20.70;99.90
59067;DHT22;44854;50.838;4.438;2022-09-23T12:40:46;20.80;99.90
59067;DHT22;44854;50.838;4.438;2022-09-23T12:43:16;20.70;99.90
59067;DHT22;44854;50.838;4.438;2022-09-23T12:45:42;20.70;99.90
59067;DHT22;44854;50.838;4.438;2022-09-23T12:50:50;20.40;99.90
59067;DHT22;44854;50.838;4.438;2022-09-23T12:56:00;20.40;99.90
59067;DHT22;44854;50.838;4.438;2022-09-23T13:03:40;20.70;99.90
59067;DHT22;44854;50.838;4.438;2022-09-23T13:06:29;20.60;99.90
59067;DHT22;44854;50.838;4.438;2022-09-23T13:09:19;20.70;99.90
59067;DHT22;44854;50.838;4.438;2022-09-23T13:11:45;20.80;99.90
59067;DHT22;44854;50.838;4.438;2022-09-23T13:14:14;20.80;99.90
59067;DHT22;44854;50.838;4.438;2022-09-23T13:16:43;20.70;99.90
59067;DHT22;44854;50.838;4.438;2022-09-23T13:26:37;20.90;99.90
59067;DHT22;44854;50.838;4.438;2022-09-23T13:29:03;20.90;99.90
59067;DHT22;44854;50.838;4.438;2022-09-23T13:31:29;20.60;99.90
59067;DHT22;44854;50.838;4.438;2022-09-23T13:33:58;20.40;99.90
59067;DHT22;44854;50.838;4.438;2022-09-23T13:36:24;20.60;99.90
59067;DHT22;44854;50.838;4.438;2022-09-23T13:38:50;20.70;99.90
59067;DHT22;44854;50.838;4.438;2022-09-23T13:41:17;20.70;99.90
59067;DHT22;44854;50.838;4.438;2022-09-23T13:46:15;20.50;99.90
59067;DHT22;44854;50.838;4.438;2022-09-23T13:48:45;20.60;99.90
59067;DHT22;44854;50.838;4.438;2022-09-23T13:51:15;20.60;99.90
59067;DHT22;44854;50.838;4.438;2022-09-23T13:53:44;20.60;99.90
59067;DHT22;44854;50.838;4.438;2022-09-23T13:56:15;20.50;99.90
59067;DHT22;44854;50.838;4.438;2022-09-23T13:58:41;20.50;99.90
59067;DHT22;44854;50.838;4.438;2022-09-23T14:01:08;20.60;99.90
59067;DHT22;44854;50.838;4.438;2022-09-23T14:03:35;20.60;99.90
59067;DHT22;44854;50.838;4.438;2022-09-23T14:06:07;20.50;99.90
59067;DHT22;44854;50.838;4.438;2022-09-23T14:08:33;20.50;99.90
59067;DHT22;44854;50.838;4.438;2022-09-23T14:10:59;20.60;99.90
59067;DHT22;44854;50.838;4.438;2022-09-23T14:13:25;20.60;99.90
59067;DHT22;44854;50.838;4.438;2022-09-23T14:15:52;20.60;99.90
59067;DHT22;44854;50.838;4.438;2022-09-23T14:18:38;20.60;99.90
59067;DHT22;44854;50.838;4.438;2022-09-23T14:21:05;20.50;99.90
59067;DHT22;44854;50.838;4.438;2022-09-23T14:23:30;20.40;99.90
59067;DHT22;44854;50.838;4.438;2022-09-23T14:25:56;20.40;99.90
59067;DHT22;44854;50.838;4.438;2022-09-23T14:28:24;20.30;99.90
59067;DHT22;44854;50.838;4.438;2022-09-23T14:30:51;20.40;99.90
59067;DHT22;44854;50.838;4.438;2022-09-23T14:33:22;20.30;99.90
59067;DHT22;44854;50.838;4.438;2022-09-23T14:35:52;20.10;99.90
59067;DHT22;44854;50.838;4.438;2022-09-23T14:38:23;19.90;99.90
59067;DHT22;44854;50.838;4.438;2022-09-23T14:41:13;19.80;99.90
59067;DHT22;44854;50.838;4.438;2022-09-23T14:43:45;19.80;99.90
59067;DHT22;44854;50.838;4.438;2022-09-23T14:46:12;19.70;99.90
59067;DHT22;44854;50.838;4.438;2022-09-23T14:48:40;19.80;99.90
59067;DHT22;44854;50.838;4.438;2022-09-23T14:51:06;20.00;99.90
59067;DHT22;44854;50.838;4.438;2022-09-23T14:53:34;20.00;99.90
59067;DHT22;44854;50.838;4.438;2022-09-23T14:56:19;20.10;99.90
59067;DHT22;44854;50.838;4.438;2022-09-23T14:58:46;20.20;99.90
59067;DHT22;44854;50.838;4.438;2022-09-23T15:03:49;20.10;99.90
59067;DHT22;44854;50.838;4.438;2022-09-23T15:06:15;20.10;99.90
59067;DHT22;44854;50.838;4.438;2022-09-23T15:08:42;20.00;99.90
59067;DHT22;44854;50.838;4.438;2022-09-23T15:11:08;20.00;99.90
59067;DHT22;44854;50.838;4.438;2022-09-23T15:13:40;19.70;99.90
59067;DHT22;44854;50.838;4.438;2022-09-23T15:16:08;19.80;99.90
59067;DHT22;44854;50.838;4.438;2022-09-23T15:18:37;19.80;99.90
59067;DHT22;44854;50.838;4.438;2022-09-23T15:23:35;20.00;99.90
59067;DHT22;44854;50.838;4.438;2022-09-23T15:26:12;19.90;99.90
59067;DHT22;44854;50.838;4.438;2022-09-23T15:28:38;19.80;99.90
59067;DHT22;44854;50.838;4.438;2022-09-23T15:31:03;20.00;99.90
59067;DHT22;44854;50.838;4.438;2022-09-23T15:33:30;19.90;99.90
59067;DHT22;44854;50.838;4.438;2022-09-23T15:35:56;19.70;99.90
59067;DHT22;44854;50.838;4.438;2022-09-23T15:38:22;19.70;99.90
59067;DHT22;44854;50.838;4.438;2022-09-23T15:40:48;19.70;99.90
59067;DHT22;44854;50.838;4.438;2022-09-23T15:43:18;19.70;99.90
59067;DHT22;44854;50.838;4.438;2022-09-23T15:45:45;19.60;99.90
59067;DHT22;44854;50.838;4.438;2022-09-23T15:48:15;19.50;99.90
59067;DHT22;44854;50.838;4.438;2022-09-23T15:50:41;19.50;99.90
59067;DHT22;44854;50.838;4.438;2022-09-23T15:53:09;19.50;99.90
59067;DHT22;44854;50.838;4.438;2022-09-23T15:55:37;19.40;99.90
59067;DHT22;44854;50.838;4.438;2022-09-23T15:58:02;19.30;99.90
59067;DHT22;44854;50.838;4.438;2022-09-23T16:00:28;19.30;99.90
59067;DHT22;44854;50.838;4.438;2022-09-23T16:02:54;19.30;99.90
59067;DHT22;44854;50.838;4.438;2022-09-23T16:05:27;19.30;99.90
59067;DHT22;44854;50.838;4.438;2022-09-23T16:07:58;19.40;99.90
59067;DHT22;44854;50.838;4.438;2022-09-23T16:10:24;19.30;99.90
59067;DHT22;44854;50.838;4.438;2022-09-23T16:12:51;19.20;99.90
59067;DHT22;44854;50.838;4.438;2022-09-23T16:15:18;19.20;99.90
59067;DHT22;44854;50.838;4.438;2022-09-23T16:17:44;19.30;99.90
59067;DHT22;44854;50.838;4.438;2022-09-23T16:20:10;19.30;99.90
59067;DHT22;44854;50.838;4.438;2022-09-23T16:22:36;19.30;99.90
59067;DHT22;44854;50.838;4.438;2022-09-23T16:25:03;19.20;99.90
59067;DHT22;44854;50.838;4.438;2022-09-23T16:27:29;19.10;99.90
59067;DHT22;44854;50.838;4.438;2022-09-23T16:29:55;19.10;99.90
59067;DHT22;44854;50.838;4.438;2022-09-23T16:32:20;19.10;99.90
59067;DHT22;44854;50.838;4.438;2022-09-23T16:34:47;19.00;99.90
59067;DHT22;44854;50.838;4.438;2022-09-23T16:37:13;18.90;99.90
59067;DHT22;44854;50.838;4.438;2022-09-23T16:39:42;18.80;99.90
59067;DHT22;44854;50.838;4.438;2022-09-23T16:42:08;18.70;99.90
59067;DHT22;44854;50.838;4.438;2022-09-23T16:44:34;18.70;99.90
59067;DHT22;44854;50.838;4.438;2022-09-23T16:47:00;18.60;99.90
59067;DHT22;44854;50.838;4.438;2022-09-23T16:49:25;18.70;99.90
59067;DHT22;44854;50.838;4.438;2022-09-23T16:51:51;18.60;99.90
59067;DHT22;44854;50.838;4.438;2022-09-23T16:54:17;18.60;99.90
59067;DHT22;44854;50.838;4.438;2022-09-23T16:56:44;18.70;99.90
59067;DHT22;44854;50.838;4.438;2022-09-23T16:59:11;18.70;99.90
59067;DHT22;44854;50.838;4.438;2022-09-23T17:01:37;18.60;99.90
59067;DHT22;44854;50.838;4.438;2022-09-23T17:04:21;18.60;99.90
59067;DHT22;44854;50.838;4.438;2022-09-23T17:06:47;18.40;99.90
59067;DHT22;44854;50.838;4.438;2022-09-23T17:09:14;18.50;99.90
59067;DHT22;44854;50.838;4.438;2022-09-23T17:11:40;18.50;99.90
59067;DHT22;44854;50.838;4.438;2022-09-23T17:14:08;18.40;99.90
59067;DHT22;44854;50.838;4.438;2022-09-23T17:16:34;18.30;99.90
59067;DHT22;44854;50.838;4.438;2022-09-23T17:19:09;18.10;99.90
59067;DHT22;44854;50.838;4.438;2022-09-23T17:21:38;18.10;99.90
59067;DHT22;44854;50.838;4.438;2022-09-23T17:24:04;18.00;99.90
59067;DHT22;44854;50.838;4.438;2022-09-23T17:26:29;18.00;99.90
59067;DHT22;44854;50.838;4.438;2022-09-23T17:28:55;17.90;99.90
59067;DHT22;44854;50.838;4.438;2022-09-23T17:31:22;17.90;99.90
59067;DHT22;44854;50.838;4.438;2022-09-23T17:33:48;17.90;99.90
59067;DHT22;44854;50.838;4.438;2022-09-23T17:36:14;17.80;99.90
59067;DHT22;44854;50.838;4.438;2022-09-23T17:38:43;17.70;99.90
59067;DHT22;44854;50.838;4.438;2022-09-23T17:41:09;17.70;99.90
59067;DHT22;44854;50.838;4.438;2022-09-23T17:43:35;17.70;99.90
59067;DHT22;44854;50.838;4.438;2022-09-23T17:46:02;17.70;99.90
59067;DHT22;44854;50.838;4.438;2022-09-23T17:48:31;17.50;99.90
59067;DHT22;44854;50.838;4.438;2022-09-23T17:50:59;17.60;99.90
59067;DHT22;44854;50.838;4.438;2022-09-23T17:53:28;17.60;99.90
59067;DHT22;44854;50.838;4.438;2022-09-23T17:56:00;17.60;99.90
59067;DHT22;44854;50.838;4.438;2022-09-23T17:58:28;17.50;99.90
59067;DHT22;44854;50.838;4.438;2022-09-23T18:00:54;17.40;99.90
59067;DHT22;44854;50.838;4.438;2022-09-23T18:03:20;17.40;99.90
59067;DHT22;44854;50.838;4.438;2022-09-23T18:05:46;17.30;99.90
59067;DHT22;44854;50.838;4.438;2022-09-23T18:08:12;17.40;99.90
59067;DHT22;44854;50.838;4.438;2022-09-23T18:10:37;17.40;99.90
59067;DHT22;44854;50.838;4.438;2022-09-23T18:13:03;17.40;99.90
59067;DHT22;44854;50.838;4.438;2022-09-23T18:15:28;17.40;99.90
59067;DHT22;44854;50.838;4.438;2022-09-23T18:17:54;17.40;99.90
59067;DHT22;44854;50.838;4.438;2022-09-23T18:20:19;17.40;99.90
59067;DHT22;44854;50.838;4.438;2022-09-23T18:22:45;17.40;99.90
59067;DHT22;44854;50.838;4.438;2022-09-23T18:25:10;17.50;99.90
59067;DHT22;44854;50.838;4.438;2022-09-23T18:27:36;17.50;99.90
59067;DHT22;44854;50.838;4.438;2022-09-23T18:30:01;17.40;99.90
59067;DHT22;44854;50.838;4.438;2022-09-23T18:32:27;17.30;99.90
59067;DHT22;44854;50.838;4.438;2022-09-23T18:34:52;17.20;99.90
59067;DHT22;44854;50.838;4.438;2022-09-23T18:37:18;17.10;99.90
59067;DHT22;44854;50.838;4.438;2022-09-23T18:39:43;17.00;99.90
59067;DHT22;44854;50.838;4.438;2022-09-23T18:42:09;17.00;99.90
59067;DHT22;44854;50.838;4.438;2022-09-23T18:44:35;17.00;99.90
59067;DHT22;44854;50.838;4.438;2022-09-23T18:47:00;17.10;99.90
59067;DHT22;44854;50.838;4.438;2022-09-23T18:49:26;17.00;99.90
59067;DHT22;44854;50.838;4.438;2022-09-23T18:52:10;16.90;99.90
59067;DHT22;44854;50.838;4.438;2022-09-23T18:54:35;17.00;99.90
59067;DHT22;44854;50.838;4.438;2022-09-23T18:57:01;16.90;99.90
59067;DHT22;44854;50.838;4.438;2022-09-23T18:59:27;16.80;99.90
59067;DHT22;44854;50.838;4.438;2022-09-23T19:01:54;16.90;99.90
59067;DHT22;44854;50.838;4.438;2022-09-23T19:04:19;16.80;99.90
59067;DHT22;44854;50.838;4.438;2022-09-23T19:06:46;16.80;99.90
59067;DHT22;44854;50.838;4.438;2022-09-23T19:09:12;16.90;99.90
59067;DHT22;44854;50.838;4.438;2022-09-23T19:11:38;17.00;99.90
59067;DHT22;44854;50.838;4.438;2022-09-23T19:14:05;17.10;99.90
59067;DHT22;44854;50.838;4.438;2022-09-23T19:16:30;16.90;99.90
59067;DHT22;44854;50.838;4.438;2022-09-23T19:18:56;16.80;99.90
59067;DHT22;44854;50.838;4.438;2022-09-23T19:21:23;16.80;99.90
59067;DHT22;44854;50.838;4.438;2022-09-23T19:23:50;16.80;99.90
59067;DHT22;44854;50.838;4.438;2022-09-23T19:26:19;16.90;99.90
59067;DHT22;44854;50.838;4.438;2022-09-23T19:28:50;16.80;99.90
59067;DHT22;44854;50.838;4.438;2022-09-23T19:31:17;16.60;99.90
59067;DHT22;44854;50.838;4.438;2022-09-23T19:33:49;16.60;99.90
59067;DHT22;44854;50.838;4.438;2022-09-23T19:36:27;16.60;99.90
59067;DHT22;44854;50.838;4.438;2022-09-23T19:38:56;16.60;99.90
59067;DHT22;44854;50.838;4.438;2022-09-23T19:41:22;16.50;99.90
59067;DHT22;44854;50.838;4.438;2022-09-23T19:43:50;16.50;99.90
59067;DHT22;44854;50.838;4.438;2022-09-23T19:46:15;16.50;99.90
59067;DHT22;44854;50.838;4.438;2022-09-23T19:48:41;16.40;99.90
59067;DHT22;44854;50.838;4.438;2022-09-23T19:51:07;16.40;99.90
59067;DHT22;44854;50.838;4.438;2022-09-23T19:53:32;16.30;99.90
59067;DHT22;44854;50.838;4.438;2022-09-23T19:56:00;16.30;99.90
59067;DHT22;44854;50.838;4.438;2022-09-23T19:58:27;16.20;99.90
59067;DHT22;44854;50.838;4.438;2022-09-23T20:00:53;16.20;99.90
59067;DHT22;44854;50.838;4.438;2022-09-23T20:03:18;16.20;99.90
59067;DHT22;44854;50.838;4.438;2022-09-23T20:05:44;16.10;99.90
59067;DHT22;44854;50.838;4.438;2022-09-23T20:08:18;16.10;99.90
59067;DHT22;44854;50.838;4.438;2022-09-23T20:10:43;16.00;99.90
59067;DHT22;44854;50.838;4.438;2022-09-23T20:13:11;16.00;99.90
59067;DHT22;44854;50.838;4.438;2022-09-23T20:15:38;16.10;99.90
59067;DHT22;44854;50.838;4.438;2022-09-23T20:18:03;16.10;99.90
59067;DHT22;44854;50.838;4.438;2022-09-23T20:20:29;16.20;99.90
59067;DHT22;44854;50.838;4.438;2022-09-23T20:22:54;16.30;99.90
59067;DHT22;44854;50.838;4.438;2022-09-23T20:25:20;16.30;99.90
59067;DHT22;44854;50.838;4.438;2022-09-23T20:27:48;16.30;99.90
59067;DHT22;44854;50.838;4.438;2022-09-23T20:30:18;16.30;99.90
59067;DHT22;44854;50.838;4.438;2022-09-23T20:32:44;16.40;99.90
59067;DHT22;44854;50.838;4.438;2022-09-23T20:35:09;16.40;99.90
59067;DHT22;44854;50.838;4.438;2022-09-23T20:37:35;16.30;99.90
59067;DHT22;44854;50.838;4.438;2022-09-23T20:40:02;16.20;99.90
59067;DHT22;44854;50.838;4.438;2022-09-23T20:42:27;16.30;99.90
59067;DHT22;44854;50.838;4.438;2022-09-23T20:44:53;16.30;99.90
59067;DHT22;44854;50.838;4.438;2022-09-23T20:47:21;16.30;99.90
59067;DHT22;44854;50.838;4.438;2022-09-23T20:49:47;16.30;99.90
59067;DHT22;44854;50.838;4.438;2022-09-23T20:52:15;16.30;99.90
59067;DHT22;44854;50.838;4.438;2022-09-23T20:54:40;16.30;99.90
59067;DHT22;44854;50.838;4.438;2022-09-23T20:57:08;16.20;99.90
59067;DHT22;44854;50.838;4.438;2022-09-23T20:59:34;16.20;99.90
59067;DHT22;44854;50.838;4.438;2022-09-23T21:02:00;16.10;99.90
59067;DHT22;44854;50.838;4.438;2022-09-23T21:04:26;16.20;99.90
59067;DHT22;44854;50.838;4.438;2022-09-23T21:06:52;16.20;99.90
59067;DHT22;44854;50.838;4.438;2022-09-23T21:09:18;16.20;99.90
59067;DHT22;44854;50.838;4.438;2022-09-23T21:11:47;16.20;99.90
59067;DHT22;44854;50.838;4.438;2022-09-23T21:14:12;16.20;99.90
59067;DHT22;44854;50.838;4.438;2022-09-23T21:16:38;16.30;99.90
59067;DHT22;44854;50.838;4.438;2022-09-23T21:19:03;16.20;99.90
59067;DHT22;44854;50.838;4.438;2022-09-23T21:21:31;16.30;99.90
59067;DHT22;44854;50.838;4.438;2022-09-23T21:23:57;16.20;99.90
59067;DHT22;44854;50.838;4.438;2022-09-23T21:26:24;16.10;99.90
59067;DHT22;44854;50.838;4.438;2022-09-23T21:28:53;15.90;99.90
59067;DHT22;44854;50.838;4.438;2022-09-23T21:31:23;15.90;99.90
59067;DHT22;44854;50.838;4.438;2022-09-23T21:33:56;15.90;99.90
59067;DHT22;44854;50.838;4.438;2022-09-23T21:36:23;15.80;99.90
59067;DHT22;44854;50.838;4.438;2022-09-23T21:38:49;15.80;99.90
59067;DHT22;44854;50.838;4.438;2022-09-23T21:41:14;15.80;99.90
59067;DHT22;44854;50.838;4.438;2022-09-23T21:43:40;15.80;99.90
59067;DHT22;44854;50.838;4.438;2022-09-23T21:46:07;15.80;99.90
59067;DHT22;44854;50.838;4.438;2022-09-23T21:48:33;15.80;99.90
59067;DHT22;44854;50.838;4.438;2022-09-23T21:51:00;15.80;99.90
59067;DHT22;44854;50.838;4.438;2022-09-23T21:53:27;15.70;99.90
59067;DHT22;44854;50.838;4.438;2022-09-23T21:58:29;15.80;99.90
